Time;durP1;ratioP1;P1;durP2;ratioP2;P2;SDS_P1;SDS_P2;PMS_P1;PMS_P2;Temp;Humidity;BMP_temperature;BMP_pressure;BME280_temperature;BME280_humidity;BME280_pressure;Samples;Min_cycle;Max_cycle;Signal;HPM_P1;HPM_P2
2020/12/19 00:00:29;;;;;;;47.60;11.05;;;1.00;99.90;;;;;;8314652;28;20037;-77
2020/12/19 00:04:30;;;;;;;121.68;11.52;;;0.90;99.90;;;;;;8314927;28;20084;-76
2020/12/19 00:08:30;;;;;;;40.38;9.13;;;1.10;99.90;;;;;;8310976;28;20022;-76
2020/12/19 00:12:31;;;;;;;71.18;10.20;;;1.30;99.90;;;;;;8269427;28;20114;-77
2020/12/19 00:16:32;;;;;;;135.32;11.43;;;1.40;99.90;;;;;;8272585;28;20077;-77
2020/12/19 00:20:32;;;;;;;84.47;10.30;;;1.50;99.90;;;;;;8272395;28;20033;-76
2020/12/19 00:24:33;;;;;;;127.68;11.23;;;1.30;99.90;;;;;;8272354;28;20066;-77
2020/12/19 00:28:34;;;;;;;142.27;11.80;;;1.00;99.90;;;;;;8274528;28;20022;-77
2020/12/19 00:32:38;;;;;;;83.45;10.20;;;1.10;99.90;;;;;;8273731;28;20245;-76
2020/12/19 00:36:39;;;;;;;39.63;8.82;;;1.20;99.90;;;;;;8275603;28;20073;-77
2020/12/19 00:40:40;;;;;;;119.57;11.18;;;1.00;99.90;;;;;;8297100;28;20022;-76
2020/12/19 00:44:40;;;;;;;33.00;10.15;;;1.00;99.90;;;;;;8306684;28;20029;-76
2020/12/19 00:48:42;;;;;;;33.90;9.70;;;0.80;99.90;;;;;;8307208;28;20030;-78
2020/12/19 00:52:42;;;;;;;47.38;10.73;;;0.70;99.90;;;;;;8306560;28;20030;-77
2020/12/19 00:56:43;;;;;;;21.33;9.52;;;0.60;99.90;;;;;;8307417;28;20850;-77
2020/12/19 01:00:43;;;;;;;22.77;8.88;;;0.60;99.90;;;;;;8306024;28;20026;-76
2020/12/19 01:04:44;;;;;;;30.02;10.27;;;0.80;99.90;;;;;;8305523;28;20081;-76
2020/12/19 01:08:46;;;;;;;67.47;10.80;;;0.60;99.90;;;;;;8305224;28;20041;-79
2020/12/19 01:12:47;;;;;;;95.55;12.23;;;0.60;99.90;;;;;;8303336;28;20038;-77
2020/12/19 01:16:47;;;;;;;53.97;9.93;;;0.50;99.90;;;;;;8302246;28;20034;-76
2020/12/19 01:20:48;;;;;;;63.70;10.23;;;0.50;99.90;;;;;;8301419;28;20144;-79
2020/12/19 01:24:48;;;;;;;62.47;10.65;;;0.70;99.90;;;;;;8306184;28;20022;-77
2020/12/19 01:28:50;;;;;;;24.42;11.15;;;0.60;99.90;;;;;;8304369;28;20102;-77
2020/12/19 01:32:50;;;;;;;34.45;10.38;;;0.50;99.90;;;;;;8308170;28;20458;-77
2020/12/19 01:36:51;;;;;;;77.30;11.30;;;0.30;99.90;;;;;;8304692;28;20026;-76
2020/12/19 01:40:53;;;;;;;30.63;10.13;;;0.40;99.90;;;;;;8304143;28;20037;-77
2020/12/19 01:44:54;;;;;;;53.35;10.98;;;0.20;99.90;;;;;;8305288;28;20022;-77
2020/12/19 01:48:57;;;;;;;51.35;10.30;;;0.00;99.90;;;;;;8304929;28;20128;-77
2020/12/19 01:52:58;;;;;;;43.53;10.77;;;-0.10;99.90;;;;;;8305059;28;20025;-76
2020/12/19 01:57:02;;;;;;;26.23;10.02;;;0.00;99.90;;;;;;8304341;28;20032;-77
2020/12/19 02:01:06;;;;;;;23.90;9.60;;;0.00;99.90;;;;;;8305188;28;20081;-76
2020/12/19 02:05:06;;;;;;;82.40;10.38;;;-0.10;99.90;;;;;;8307002;28;20025;-77
2020/12/19 02:09:07;;;;;;;89.47;11.02;;;0.10;99.90;;;;;;8303461;28;20037;-77
2020/12/19 02:13:08;;;;;;;99.75;10.98;;;0.10;99.90;;;;;;8304197;28;20088;-76
2020/12/19 02:17:11;;;;;;;44.83;8.73;;;0.30;99.90;;;;;;8302381;28;20022;-77
2020/12/19 02:21:12;;;;;;;34.47;9.35;;;0.40;99.90;;;;;;8307292;28;20022;-77
2020/12/19 02:25:13;;;;;;;50.70;10.25;;;0.40;99.90;;;;;;8301170;28;20541;-77
2020/12/19 02:29:13;;;;;;;54.20;9.95;;;0.20;99.90;;;;;;8302440;28;20034;-77
2020/12/19 02:33:14;;;;;;;72.13;8.77;;;0.10;99.90;;;;;;8314278;28;20097;-78
2020/12/19 02:37:15;;;;;;;52.88;8.55;;;0.40;99.90;;;;;;8312416;28;20049;-77
2020/12/19 02:41:15;;;;;;;134.57;9.77;;;0.40;99.90;;;;;;8313791;28;20030;-78
2020/12/19 02:45:16;;;;;;;145.35;9.18;;;0.40;99.90;;;;;;8312311;28;20506;-78
2020/12/19 02:49:16;;;;;;;106.05;9.52;;;0.60;99.90;;;;;;8310565;28;20030;-76
2020/12/19 02:53:17;;;;;;;127.22;10.38;;;0.40;99.90;;;;;;8311522;28;20030;-78
2020/12/19 02:57:17;;;;;;;146.80;10.88;;;0.20;99.90;;;;;;8312340;28;20030;-77
2020/12/19 03:01:18;;;;;;;76.55;10.18;;;-0.20;99.90;;;;;;8312381;28;20014;-77
2020/12/19 03:05:19;;;;;;;110.32;9.88;;;;;;;;;;8314415;28;20124;-77
2020/12/19 03:09:20;;;;;;;107.50;8.80;;;0.00;99.90;;;;;;8312449;28;20503;-77
2020/12/19 03:13:21;;;;;;;83.65;9.93;;;0.10;99.90;;;;;;8312198;28;20033;-76
2020/12/19 03:17:21;;;;;;;103.22;9.20;;;0.00;99.90;;;;;;8310948;28;20200;-77
2020/12/19 03:21:22;;;;;;;67.75;9.25;;;-0.10;99.90;;;;;;8314703;28;20026;-76
2020/12/19 03:25:22;;;;;;;53.05;8.95;;;-0.20;99.90;;;;;;8311792;28;20037;-77
2020/12/19 03:29:23;;;;;;;40.53;7.80;;;-0.20;99.90;;;;;;8312907;28;20702;-77
2020/12/19 03:33:23;;;;;;;188.27;11.88;;;-0.10;99.90;;;;;;8314977;28;20080;-77
2020/12/19 03:37:24;;;;;;;63.60;8.90;;;-0.10;99.90;;;;;;8315365;28;20022;-77
2020/12/19 03:41:25;;;;;;;121.88;10.65;;;-0.10;99.90;;;;;;8314645;28;20029;-77
2020/12/19 03:45:25;;;;;;;71.20;8.70;;;0.00;99.90;;;;;;8313985;28;20044;-76
2020/12/19 03:49:26;;;;;;;55.33;9.27;;;0.00;99.90;;;;;;8310206;28;20045;-77
2020/12/19 03:53:26;;;;;;;141.60;10.98;;;0.00;99.90;;;;;;8308940;28;20032;-77
2020/12/19 03:57:27;;;;;;;81.88;8.75;;;0.00;99.90;;;;;;8308898;28;20041;-77
2020/12/19 04:01:27;;;;;;;32.65;8.52;;;0.10;99.90;;;;;;8309583;28;20473;-77
2020/12/19 04:05:28;;;;;;;46.88;8.68;;;-0.20;99.90;;;;;;8309069;28;20034;-76
2020/12/19 04:09:28;;;;;;;51.80;9.05;;;-0.60;99.90;;;;;;8300879;28;20057;-76
2020/12/19 04:13:29;;;;;;;92.95;8.93;;;-0.50;99.90;;;;;;8311788;28;20034;-77
2020/12/19 04:17:29;;;;;;;128.70;9.75;;;-0.20;99.90;;;;;;8327395;28;20045;-77
2020/12/19 04:21:30;;;;;;;112.32;9.73;;;-0.10;99.90;;;;;;8324151;28;20515;-75
2020/12/19 04:25:30;;;;;;;47.55;8.50;;;-0.30;99.90;;;;;;8307102;28;20029;-76
2020/12/19 04:29:31;;;;;;;47.28;8.52;;;-0.30;99.90;;;;;;8309062;28;20121;-76
2020/12/19 04:33:32;;;;;;;55.92;8.75;;;-0.30;99.90;;;;;;8305546;28;20026;-77
2020/12/19 04:37:32;;;;;;;26.48;7.45;;;-0.30;99.90;;;;;;8320084;28;20025;-76
2020/12/19 04:41:34;;;;;;;51.38;9.00;;;-0.30;99.90;;;;;;8305557;28;20018;-78
2020/12/19 04:45:36;;;;;;;62.63;9.02;;;-0.50;99.90;;;;;;8306026;28;20033;-77
2020/12/19 04:49:37;;;;;;;33.42;8.18;;;-0.30;99.90;;;;;;8302457;28;20452;-77
2020/12/19 04:53:38;;;;;;;34.72;8.00;;;-0.30;99.90;;;;;;8301708;28;20018;-77
2020/12/19 04:57:38;;;;;;;36.97;8.70;;;-0.30;99.90;;;;;;8304877;28;20084;-77
2020/12/19 05:01:39;;;;;;;105.03;8.98;;;-0.30;99.90;;;;;;8306434;28;20430;-76
2020/12/19 05:05:44;;;;;;;84.43;7.80;;;-0.30;99.90;;;;;;8305011;28;20026;-77
2020/12/19 05:09:45;;;;;;;99.53;8.27;;;-0.20;99.90;;;;;;8302669;28;20066;-76
2020/12/19 05:13:46;;;;;;;123.50;7.55;;;-0.20;99.90;;;;;;8303172;28;20037;-77
2020/12/19 05:17:51;;;;;;;151.48;9.05;;;-0.10;99.90;;;;;;8319609;28;20518;-76
2020/12/19 05:21:55;;;;;;;109.07;7.93;;;-0.50;99.90;;;;;;8318111;28;20032;-76
2020/12/19 05:25:56;;;;;;;67.38;7.30;;;-0.40;99.90;;;;;;8297471;28;20133;-77
2020/12/19 05:29:58;;;;;;;56.38;7.18;;;-0.60;99.90;;;;;;8293509;28;20586;-77
2020/12/19 05:33:58;;;;;;;63.15;7.63;;;-0.50;99.90;;;;;;8288965;28;20152;-75
2020/12/19 05:38:01;;;;;;;40.78;6.85;;;-0.50;99.90;;;;;;8285653;28;20483;-77
2020/12/19 05:42:02;;;;;;;71.05;8.93;;;-0.60;99.90;;;;;;8284413;28;20041;-77
2020/12/19 05:46:02;;;;;;;86.68;8.13;;;-0.40;99.90;;;;;;8303284;28;20121;-76
2020/12/19 05:50:03;;;;;;;27.27;7.40;;;-0.40;99.90;;;;;;8293884;28;20029;-76
2020/12/19 05:54:09;;;;;;;33.15;7.38;;;-0.40;99.90;;;;;;8271141;28;20399;-70
2020/12/19 05:58:10;;;;;;;39.08;8.50;;;-0.50;99.90;;;;;;8300091;28;20030;-71
2020/12/19 06:02:14;;;;;;;38.63;7.53;;;-0.20;99.90;;;;;;8270501;28;20395;-71
2020/12/19 06:06:16;;;;;;;88.20;7.28;;;-0.50;99.90;;;;;;8282114;28;20033;-71
2020/12/19 06:10:18;;;;;;;104.95;7.97;;;-0.40;99.90;;;;;;8282038;28;20459;-70
2020/12/19 06:14:21;;;;;;;46.45;6.50;;;-0.30;99.90;;;;;;8298823;28;20034;-78
2020/12/19 06:18:44;;;;;;;39.90;6.68;;;-0.50;99.90;;;;;;8301116;28;20030;-78
2020/12/19 06:22:44;;;;;;;50.35;6.35;;;-0.40;99.90;;;;;;8304947;28;20026;-77
2020/12/19 06:26:45;;;;;;;109.50;7.50;;;-0.40;99.90;;;;;;8301385;28;20030;-78
2020/12/19 06:30:45;;;;;;;45.90;5.68;;;-0.50;99.90;;;;;;8300521;28;20030;-77
2020/12/19 06:35:18;;;;;;;44.33;6.50;;;-0.40;99.90;;;;;;8302605;28;20399;-76
2020/12/19 06:39:19;;;;;;;36.95;6.82;;;-0.70;99.90;;;;;;8280429;28;20552;-77
2020/12/19 06:43:20;;;;;;;31.35;6.00;;;-0.90;99.90;;;;;;8301455;28;20014;-76
2020/12/19 06:47:20;;;;;;;37.22;6.30;;;-0.80;99.90;;;;;;8300982;28;20037;-77
2020/12/19 06:51:21;;;;;;;59.90;5.72;;;-0.80;99.90;;;;;;8301094;28;20072;-78
2020/12/19 06:55:23;;;;;;;117.43;7.50;;;-0.60;99.90;;;;;;8300345;28;20022;-77
2020/12/19 06:59:29;;;;;;;123.07;8.00;;;-0.70;99.90;;;;;;8300254;28;20026;-77
2020/12/19 07:03:41;;;;;;;78.80;7.00;;;-0.60;99.90;;;;;;8299967;28;20128;-76
2020/12/19 07:07:43;;;;;;;42.60;6.75;;;-0.60;99.90;;;;;;8298732;28;20041;-77
2020/12/19 07:11:43;;;;;;;41.58;6.68;;;-0.90;99.90;;;;;;8276113;28;20031;-77
2020/12/19 07:15:45;;;;;;;80.07;7.63;;;-1.10;99.90;;;;;;8289501;28;20026;-76
2020/12/19 07:19:46;;;;;;;84.53;6.15;;;-0.90;99.90;;;;;;8275444;28;20029;-75
2020/12/19 07:23:47;;;;;;;38.67;5.80;;;-0.70;99.90;;;;;;8279866;28;20108;-73
2020/12/19 07:27:48;;;;;;;24.40;6.60;;;-0.90;99.90;;;;;;8274507;28;20050;-75
2020/12/19 07:31:53;;;;;;;18.55;6.50;;;-0.90;99.90;;;;;;8272238;28;20054;-77
2020/12/19 07:35:56;;;;;;;58.35;6.95;;;-0.70;99.90;;;;;;8287441;28;20060;-77
2020/12/19 07:40:07;;;;;;;45.63;7.05;;;-0.70;99.90;;;;;;8301702;28;20022;-78
2020/12/19 07:44:17;;;;;;;26.38;6.63;;;-0.70;99.90;;;;;;8288337;28;20023;-78
2020/12/19 07:48:17;;;;;;;21.90;6.45;;;-0.70;99.90;;;;;;8272057;28;20507;-78
2020/12/19 07:52:20;;;;;;;20.10;6.38;;;-0.70;99.90;;;;;;8291523;28;20037;-77
2020/12/19 07:56:21;;;;;;;20.27;6.07;;;-0.60;99.90;;;;;;8302806;28;20035;-77
2020/12/19 08:00:24;;;;;;;10.13;5.80;;;-0.50;99.90;;;;;;8286552;28;20037;-79
2020/12/19 08:04:25;;;;;;;35.83;8.85;;;-0.60;99.90;;;;;;8303740;28;20015;-78
2020/12/19 08:08:25;;;;;;;21.23;7.60;;;-0.70;99.90;;;;;;8277693;28;20029;-78
2020/12/19 08:12:27;;;;;;;44.05;7.80;;;-0.60;99.90;;;;;;8271371;28;20025;-78
2020/12/19 08:16:31;;;;;;;34.20;10.27;;;-0.20;99.90;;;;;;8269796;28;20092;-78
2020/12/19 08:20:39;;;;;;;22.17;10.90;;;0.00;99.90;;;;;;8290748;28;20498;-77
2020/12/19 08:24:45;;;;;;;16.38;8.93;;;0.40;99.90;;;;;;8305722;28;20499;-76
2020/12/19 08:29:00;;;;;;;14.07;9.18;;;0.50;99.90;;;;;;8309555;28;20113;-76
2020/12/19 08:33:06;;;;;;;15.73;9.40;;;0.00;99.90;;;;;;8294401;28;20415;-75
2020/12/19 08:37:06;;;;;;;14.73;9.50;;;-0.10;99.90;;;;;;8297228;28;20104;-75
2020/12/19 08:41:19;;;;;;;18.17;11.30;;;0.20;99.90;;;;;;8294136;28;20485;-75
2020/12/19 08:45:31;;;;;;;14.38;10.27;;;0.50;99.90;;;;;;8295342;28;20026;-76
2020/12/19 08:49:31;;;;;;;14.20;9.75;;;0.60;99.90;;;;;;8288084;28;20061;-73
2020/12/19 08:53:32;;;;;;;14.10;9.48;;;0.90;99.90;;;;;;8296440;28;20076;-77
2020/12/19 08:57:34;;;;;;;15.20;10.50;;;1.10;99.90;;;;;;8287296;28;20052;-72
2020/12/19 09:01:34;;;;;;;11.95;9.32;;;1.30;99.90;;;;;;8298486;28;20029;-80
2020/12/19 09:05:43;;;;;;;12.90;9.02;;;1.20;99.90;;;;;;8295564;28;20052;-78
2020/12/19 09:09:43;;;;;;;15.18;10.00;;;1.20;99.90;;;;;;8295131;28;20083;-76
2020/12/19 09:13:44;;;;;;;13.60;9.93;;;1.30;99.90;;;;;;8288580;28;20041;-76
2020/12/19 09:17:44;;;;;;;13.65;10.05;;;1.30;99.90;;;;;;8293765;28;20033;-78
2020/12/19 09:22:00;;;;;;;16.70;9.85;;;1.30;99.90;;;;;;8298650;28;20037;-76
2020/12/19 09:26:04;;;;;;;13.90;9.32;;;1.50;99.90;;;;;;8289266;28;20058;-72
2020/12/19 09:30:04;;;;;;;17.20;10.77;;;1.60;99.90;;;;;;8286558;28;20034;-76
2020/12/19 09:34:05;;;;;;;17.25;10.55;;;1.60;99.90;;;;;;8281902;28;20730;-70
2020/12/19 09:38:06;;;;;;;11.90;9.70;;;2.00;99.90;;;;;;8280434;28;20041;-75
2020/12/19 09:42:06;;;;;;;12.63;8.25;;;2.10;99.90;;;;;;8304379;28;20129;-75
2020/12/19 09:46:07;;;;;;;8.10;6.85;;;2.10;99.90;;;;;;8284247;28;20025;-73
2020/12/19 09:50:11;;;;;;;7.78;6.38;;;2.40;99.90;;;;;;8283574;28;20026;-74
2020/12/19 09:54:12;;;;;;;6.22;5.45;;;2.70;99.90;;;;;;8287432;28;20125;-73
2020/12/19 09:58:14;;;;;;;7.10;6.22;;;2.90;99.90;;;;;;8286860;28;20034;-74
2020/12/19 10:02:14;;;;;;;7.63;6.35;;;3.20;99.90;;;;;;8290404;28;20018;-74
2020/12/19 10:06:15;;;;;;;7.22;5.70;;;3.70;99.90;;;;;;8288282;28;20037;-73
2020/12/19 10:10:15;;;;;;;7.20;5.65;;;4.20;99.90;;;;;;8279917;28;20097;-74
2020/12/19 10:14:16;;;;;;;7.75;5.82;;;4.90;99.90;;;;;;8280783;28;20038;-75
2020/12/19 10:18:16;;;;;;;5.50;4.95;;;5.40;99.90;;;;;;8268798;28;20466;-74
2020/12/19 10:22:17;;;;;;;5.20;4.70;;;6.40;99.90;;;;;;8292922;28;20026;-75
2020/12/19 10:26:18;;;;;;;5.43;4.93;;;7.00;99.90;;;;;;8278011;28;20029;-76
2020/12/19 10:30:18;;;;;;;8.32;6.20;;;8.50;99.90;;;;;;8268997;28;20035;-76
2020/12/19 10:34:19;;;;;;;7.07;5.80;;;9.80;99.90;;;;;;8265168;28;20018;-77
2020/12/19 10:38:20;;;;;;;8.13;6.30;;;10.60;99.90;;;;;;8278301;28;20049;-75
2020/12/19 10:42:24;;;;;;;7.35;6.07;;;11.80;99.90;;;;;;8284965;28;20562;-76
2020/12/19 10:46:26;;;;;;;7.55;6.78;;;12.50;99.90;;;;;;8290478;28;20172;-76
2020/12/19 10:50:27;;;;;;;6.32;5.40;;;12.70;99.90;;;;;;8294046;28;20452;-74
2020/12/19 10:54:27;;;;;;;5.95;5.13;;;10.00;99.90;;;;;;8274326;28;20033;-75
2020/12/19 10:58:28;;;;;;;8.90;5.57;;;7.50;99.90;;;;;;8263760;28;20117;-74
2020/12/19 11:02:28;;;;;;;10.35;6.15;;;6.00;99.90;;;;;;8264421;28;20029;-74
2020/12/19 11:06:29;;;;;;;9.75;5.32;;;5.30;99.90;;;;;;8265794;28;20066;-74
2020/12/19 11:10:29;;;;;;;10.98;6.25;;;;;;;;;;8310657;28;20360;-73
2020/12/19 11:14:31;;;;;;;7.55;6.45;;;4.10;99.90;;;;;;8278061;28;20040;-73
2020/12/19 11:18:31;;;;;;;6.97;6.07;;;4.00;99.90;;;;;;8297778;28;20045;-74
2020/12/19 11:22:32;;;;;;;6.82;5.40;;;6.30;99.90;;;;;;8287668;28;20029;-74
2020/12/19 11:26:33;;;;;;;6.07;5.35;;;8.90;99.90;;;;;;8282253;28;20029;-74
2020/12/19 11:30:33;;;;;;;8.23;5.72;;;7.90;99.90;;;;;;8289285;28;20026;-75
2020/12/19 11:34:34;;;;;;;7.22;6.30;;;5.80;99.90;;;;;;8270957;28;20084;-74
2020/12/19 11:38:34;;;;;;;9.82;6.65;;;5.10;99.90;;;;;;8284040;28;20128;-75
2020/12/19 11:42:37;;;;;;;6.78;4.47;;;4.80;99.90;;;;;;8264661;28;20022;-74
2020/12/19 11:46:39;;;;;;;9.52;7.15;;;4.60;99.90;;;;;;8269758;28;20423;-75
2020/12/19 11:50:40;;;;;;;9.60;7.10;;;4.60;99.90;;;;;;8290631;28;20049;-75
2020/12/19 11:54:41;;;;;;;8.40;6.65;;;;;;;;;;8289262;28;20030;-76
2020/12/19 11:58:42;;;;;;;10.45;6.38;;;;;;;;;;8269155;28;20022;-75
2020/12/19 12:02:43;;;;;;;8.30;6.13;;;6.30;99.90;;;;;;8289902;28;20030;-75
2020/12/19 12:06:43;;;;;;;8.65;6.55;;;6.00;99.90;;;;;;8288917;28;20125;-75
2020/12/19 12:10:44;;;;;;;7.30;5.90;;;5.60;99.90;;;;;;8287518;28;20089;-75
2020/12/19 12:14:44;;;;;;;8.10;6.40;;;6.10;99.90;;;;;;8306571;28;20033;-77
2020/12/19 12:18:45;;;;;;;9.32;6.28;;;6.40;99.90;;;;;;8291568;28;20026;-72
2020/12/19 12:22:46;;;;;;;11.27;6.30;;;6.40;99.90;;;;;;8309708;28;20504;-72
2020/12/19 12:26:47;;;;;;;35.75;6.60;;;6.30;99.90;;;;;;8281971;28;20113;-73
2020/12/19 12:30:47;;;;;;;9.90;5.80;;;6.20;99.90;;;;;;8289945;28;20022;-74
2020/12/19 12:34:49;;;;;;;7.35;5.97;;;6.10;99.90;;;;;;8301499;28;20034;-73
2020/12/19 12:38:50;;;;;;;7.95;6.05;;;6.20;99.90;;;;;;8290812;28;20022;-74
2020/12/19 12:42:52;;;;;;;15.88;6.40;;;6.10;99.90;;;;;;8285163;28;20022;-75
2020/12/19 12:46:53;;;;;;;24.50;6.57;;;6.30;99.90;;;;;;8277542;28;20451;-68
2020/12/19 12:50:53;;;;;;;11.93;7.28;;;6.40;99.90;;;;;;8274692;28;20037;-67
2020/12/19 12:54:54;;;;;;;18.20;6.88;;;6.50;99.90;;;;;;8282980;28;20034;-70
2020/12/19 12:58:54;;;;;;;37.65;7.47;;;6.50;99.90;;;;;;8262965;28;20026;-70
2020/12/19 13:02:55;;;;;;;121.03;8.68;;;6.50;99.90;;;;;;8295780;28;20057;-70
2020/12/19 13:06:55;;;;;;;41.80;7.78;;;6.10;99.90;;;;;;8287168;28;20149;-69
2020/12/19 13:10:56;;;;;;;108.43;8.25;;;6.10;99.90;;;;;;8292970;28;20036;-72
2020/12/19 13:14:57;;;;;;;62.13;6.50;;;7.10;99.90;;;;;;8273336;28;20535;-72
2020/12/19 13:19:00;;;;;;;8.45;5.15;;;8.20;99.90;;;;;;8282845;28;20030;-74
2020/12/19 13:23:05;;;;;;;6.32;5.40;;;9.10;99.90;;;;;;8296338;28;20097;-78
2020/12/19 13:27:05;;;;;;;6.10;5.25;;;10.40;99.90;;;;;;8300842;28;20106;-76
2020/12/19 13:31:07;;;;;;;6.15;5.25;;;13.70;99.90;;;;;;8295874;28;20033;-75
2020/12/19 13:35:08;;;;;;;6.40;4.85;;;15.20;99.90;;;;;;8298293;28;20080;-75
2020/12/19 13:39:09;;;;;;;6.60;4.90;;;16.80;93.40;;;;;;8294993;28;20506;-75
2020/12/19 13:43:10;;;;;;;5.43;4.80;;;;;;;;;;8298781;28;20044;-75
2020/12/19 13:47:10;;;;;;;5.47;4.97;;;13.60;93.70;;;;;;8302945;28;20053;-75
2020/12/19 13:51:11;;;;;;;6.28;5.68;;;10.50;99.90;;;;;;8301282;28;20034;-76
2020/12/19 13:55:12;;;;;;;6.35;5.45;;;9.10;99.90;;;;;;8299263;28;20068;-76
2020/12/19 13:59:14;;;;;;;6.90;5.30;;;8.80;99.90;;;;;;8304705;28;20025;-76
2020/12/19 14:03:14;;;;;;;5.93;5.32;;;8.80;99.90;;;;;;8290320;28;20061;-75
2020/12/19 14:07:15;;;;;;;5.38;4.88;;;8.60;99.90;;;;;;8292247;28;20094;-76
2020/12/19 14:11:15;;;;;;;5.65;4.95;;;7.10;99.90;;;;;;8282860;28;20153;-75
2020/12/19 14:15:16;;;;;;;5.80;5.03;;;6.40;99.90;;;;;;8287325;28;20028;-76
2020/12/19 14:19:16;;;;;;;6.57;5.53;;;6.20;99.90;;;;;;8290341;28;20081;-75
2020/12/19 14:23:19;;;;;;;9.63;6.55;;;6.30;99.90;;;;;;8306099;28;20018;-75
2020/12/19 14:27:20;;;;;;;22.02;7.30;;;6.00;99.90;;;;;;8313419;28;20546;-76
2020/12/19 14:31:21;;;;;;;15.90;6.65;;;5.50;99.90;;;;;;8285371;28;20038;-76
2020/12/19 14:35:22;;;;;;;17.48;7.20;;;5.40;99.90;;;;;;8305716;28;20029;-76
2020/12/19 14:39:22;;;;;;;37.45;8.45;;;4.90;99.90;;;;;;8294360;28;20050;-76
2020/12/19 14:43:23;;;;;;;19.30;7.53;;;4.70;99.90;;;;;;8283942;28;20037;-76
2020/12/19 14:47:23;;;;;;;43.75;7.65;;;4.50;99.90;;;;;;8283186;28;20060;-71
2020/12/19 14:51:24;;;;;;;121.57;9.43;;;4.10;99.90;;;;;;8287900;28;20026;-75
2020/12/19 14:55:25;;;;;;;20.80;7.40;;;3.50;99.90;;;;;;8279822;28;20022;-78
2020/12/19 14:59:26;;;;;;;17.77;7.57;;;3.10;99.90;;;;;;8285016;28;20029;-73
2020/12/19 15:03:26;;;;;;;38.10;7.95;;;3.20;99.90;;;;;;8287449;28;20034;-77
2020/12/19 15:07:27;;;;;;;48.33;8.60;;;3.10;99.90;;;;;;8303136;28;20105;-77
2020/12/19 15:11:27;;;;;;;37.47;9.57;;;3.10;99.90;;;;;;8285130;28;20030;-78
2020/12/19 15:15:28;;;;;;;32.15;9.23;;;3.00;99.90;;;;;;8285311;28;20062;-77
2020/12/19 15:19:29;;;;;;;46.03;9.68;;;2.90;99.90;;;;;;8299233;28;20022;-76
2020/12/19 15:23:29;;;;;;;53.17;9.95;;;2.70;99.90;;;;;;8301942;28;20038;-77
2020/12/19 15:27:30;;;;;;;65.55;10.02;;;2.60;99.90;;;;;;8295599;28;20044;-77
2020/12/19 15:31:30;;;;;;;115.43;8.82;;;2.60;99.90;;;;;;8290260;28;20030;-77
2020/12/19 15:35:33;;;;;;;158.38;9.02;;;2.50;99.90;;;;;;8293588;28;20094;-77
2020/12/19 15:39:33;;;;;;;139.73;9.45;;;2.60;99.90;;;;;;8272769;28;20038;-75
2020/12/19 15:43:34;;;;;;;46.25;9.15;;;2.50;99.90;;;;;;8296476;28;20033;-76
2020/12/19 15:47:34;;;;;;;84.63;10.48;;;2.10;99.90;;;;;;8286076;28;20201;-76
2020/12/19 15:51:35;;;;;;;51.33;9.07;;;2.10;99.90;;;;;;8305716;28;20037;-77
2020/12/19 15:55:36;;;;;;;22.48;8.93;;;2.10;99.90;;;;;;8287408;28;20513;-77
2020/12/19 15:59:36;;;;;;;43.40;8.30;;;2.10;99.90;;;;;;8289874;28;20459;-77
2020/12/19 16:03:37;;;;;;;114.15;9.40;;;2.00;99.90;;;;;;8286003;28;20018;-76
2020/12/19 16:07:37;;;;;;;33.95;7.55;;;2.20;99.90;;;;;;8281578;28;20041;-77
2020/12/19 16:11:38;;;;;;;47.30;8.32;;;2.10;99.90;;;;;;8275578;28;20121;-78
2020/12/19 16:15:39;;;;;;;102.55;7.82;;;2.10;99.90;;;;;;8275814;28;20516;-76
2020/12/19 16:19:39;;;;;;;53.47;7.47;;;2.10;99.90;;;;;;8295685;28;20032;-77
2020/12/19 16:23:41;;;;;;;19.80;7.43;;;1.70;99.90;;;;;;8291204;28;20022;-77
2020/12/19 16:27:42;;;;;;;34.17;7.90;;;1.50;99.90;;;;;;8277136;28;20153;-77
2020/12/19 16:31:44;;;;;;;28.15;8.73;;;1.60;99.90;;;;;;8278956;28;20743;-77
2020/12/19 16:35:47;;;;;;;34.92;8.88;;;1.80;99.90;;;;;;8286408;28;20053;-76
2020/12/19 16:39:47;;;;;;;44.10;7.75;;;1.70;99.90;;;;;;8261128;28;20125;-76
2020/12/19 16:43:51;;;;;;;11.63;7.05;;;1.60;99.90;;;;;;8277771;28;20029;-76
2020/12/19 16:47:52;;;;;;;29.73;8.00;;;1.50;99.90;;;;;;8286842;28;20088;-77
2020/12/19 16:51:53;;;;;;;84.32;8.65;;;1.50;99.90;;;;;;8291630;28;20053;-77
2020/12/19 16:55:54;;;;;;;166.82;9.93;;;1.60;99.90;;;;;;8291871;28;20033;-77
2020/12/19 16:59:54;;;;;;;38.58;8.57;;;1.60;99.90;;;;;;8287746;28;20092;-76
2020/12/19 17:03:55;;;;;;;22.27;8.52;;;1.40;99.90;;;;;;8295666;28;20029;-77
2020/12/19 17:07:55;;;;;;;73.78;8.45;;;1.30;99.90;;;;;;8295824;28;20026;-77
2020/12/19 17:11:56;;;;;;;43.70;6.72;;;1.30;99.90;;;;;;8295219;28;20530;-77
2020/12/19 17:15:59;;;;;;;196.68;11.30;;;1.40;99.90;;;;;;8292790;28;20725;-77
2020/12/19 17:20:04;;;;;;;40.72;9.60;;;1.20;99.90;;;;;;8307185;28;20070;-76
2020/12/19 17:24:05;;;;;;;166.88;11.32;;;1.10;99.90;;;;;;8285178;28;20033;-77
2020/12/19 17:28:06;;;;;;;247.57;13.32;;;1.20;99.90;;;;;;8266794;28;20037;-77
2020/12/19 17:32:06;;;;;;;206.07;13.05;;;1.20;99.90;;;;;;8269055;28;20030;-76
2020/12/19 17:36:07;;;;;;;76.03;11.73;;;1.00;99.90;;;;;;8278287;28;20029;-77
2020/12/19 17:40:07;;;;;;;97.30;12.43;;;0.80;99.90;;;;;;8282857;28;20034;-76
2020/12/19 17:44:14;;;;;;;66.15;11.02;;;0.90;99.90;;;;;;8274348;28;20086;-77
2020/12/19 17:48:16;;;;;;;59.72;11.40;;;1.20;99.90;;;;;;8294561;28;20034;-77
2020/12/19 17:52:17;;;;;;;94.13;16.60;;;1.30;99.90;;;;;;8266006;28;20656;-76
2020/12/19 17:56:19;;;;;;;119.18;22.55;;;1.30;99.90;;;;;;8279529;28;20061;-77
2020/12/19 18:00:20;;;;;;;83.40;13.23;;;1.30;99.90;;;;;;8265527;28;20026;-76
2020/12/19 18:04:21;;;;;;;51.65;9.63;;;1.40;99.90;;;;;;8283018;28;20017;-77
2020/12/19 18:08:22;;;;;;;46.92;8.77;;;1.40;99.90;;;;;;8274134;28;20634;-77
2020/12/19 18:12:22;;;;;;;58.05;9.23;;;1.30;99.90;;;;;;8278380;28;20022;-77
2020/12/19 18:16:23;;;;;;;45.97;9.18;;;1.40;99.90;;;;;;8271737;28;20038;-77
2020/12/19 18:20:24;;;;;;;55.05;11.05;;;1.50;99.90;;;;;;8278096;28;20488;-77
2020/12/19 18:24:25;;;;;;;33.17;10.30;;;1.50;99.90;;;;;;8283229;28;20076;-77
2020/12/19 18:28:27;;;;;;;30.45;12.05;;;1.40;99.90;;;;;;8281010;28;20096;-77
2020/12/19 18:32:27;;;;;;;43.92;19.15;;;1.40;99.90;;;;;;8283425;28;20026;-77
2020/12/19 18:36:28;;;;;;;35.33;12.40;;;1.50;99.90;;;;;;8265917;28;20107;-77
2020/12/19 18:40:29;;;;;;;34.88;19.52;;;1.50;99.90;;;;;;8288483;28;20029;-77
2020/12/19 18:44:30;;;;;;;27.63;13.43;;;1.60;99.90;;;;;;8293461;28;20030;-77
2020/12/19 18:48:30;;;;;;;19.13;10.73;;;1.50;99.90;;;;;;8309587;28;20041;-77
2020/12/19 18:52:31;;;;;;;21.83;10.95;;;1.60;99.90;;;;;;8298201;28;20046;-77
2020/12/19 18:56:31;;;;;;;15.13;10.82;;;1.80;99.90;;;;;;8289016;28;20526;-76
2020/12/19 19:00:33;;;;;;;37.33;17.95;;;1.80;99.90;;;;;;8289306;28;20022;-76
2020/12/19 19:04:33;;;;;;;28.05;15.02;;;1.60;99.90;;;;;;8287798;28;20137;-77
2020/12/19 19:08:34;;;;;;;33.97;16.73;;;1.50;99.90;;;;;;8289656;28;20018;-77
2020/12/19 19:12:35;;;;;;;26.17;13.77;;;1.50;99.90;;;;;;8289535;28;20042;-76
2020/12/19 19:16:36;;;;;;;22.65;12.10;;;1.60;99.90;;;;;;8280664;28;20095;-77
2020/12/19 19:20:36;;;;;;;25.70;14.30;;;1.50;99.90;;;;;;8294414;28;20029;-76
2020/12/19 19:24:37;;;;;;;25.55;16.27;;;1.50;99.90;;;;;;8295911;28;20034;-77
2020/12/19 19:28:37;;;;;;;23.55;13.95;;;1.60;99.90;;;;;;8295939;28;20664;-75
2020/12/19 19:32:38;;;;;;;18.73;12.30;;;1.50;99.90;;;;;;8313597;28;20022;-76
2020/12/19 19:36:50;;;;;;;25.20;13.32;;;1.60;99.90;;;;;;8313071;28;20899;-77
2020/12/19 19:40:50;;;;;;;20.50;13.23;;;1.40;99.90;;;;;;8293582;28;20144;-75
2020/12/19 19:44:51;;;;;;;25.00;16.67;;;1.50;99.90;;;;;;8282622;28;20034;-76
2020/12/19 19:48:51;;;;;;;29.00;17.33;;;1.50;99.90;;;;;;8297491;28;20062;-76
2020/12/19 19:52:53;;;;;;;63.65;23.83;;;1.50;99.90;;;;;;8297921;28;20034;-77
2020/12/19 19:56:55;;;;;;;39.65;21.55;;;1.50;99.90;;;;;;8312565;28;20033;-77
2020/12/19 20:00:56;;;;;;;57.30;23.33;;;1.40;99.90;;;;;;8297181;28;20034;-76
2020/12/19 20:04:56;;;;;;;39.92;15.88;;;1.50;99.90;;;;;;8313093;28;20053;-76
2020/12/19 20:08:57;;;;;;;29.00;15.20;;;1.60;99.90;;;;;;8312313;28;20099;-76
2020/12/19 20:12:57;;;;;;;71.95;31.20;;;1.60;99.90;;;;;;8311173;28;20045;-76
2020/12/19 20:16:59;;;;;;;60.67;29.25;;;1.50;99.90;;;;;;8295005;28;20026;-75
2020/12/19 20:21:00;;;;;;;89.43;39.88;;;1.60;99.90;;;;;;8294067;28;20022;-77
2020/12/19 20:25:01;;;;;;;65.18;30.67;;;1.50;99.90;;;;;;8295156;28;20504;-77
2020/12/19 20:29:03;;;;;;;39.63;19.02;;;1.50;99.90;;;;;;8295059;28;20120;-77
2020/12/19 20:33:04;;;;;;;27.02;14.10;;;1.30;99.90;;;;;;8294007;28;20029;-76
2020/12/19 20:37:05;;;;;;;22.17;13.52;;;1.20;99.90;;;;;;8293720;28;20124;-75
2020/12/19 20:41:09;;;;;;;26.77;15.18;;;1.60;99.90;;;;;;8288934;28;20030;-76
2020/12/19 20:45:09;;;;;;;22.85;14.50;;;1.20;99.90;;;;;;8278269;28;20029;-77
2020/12/19 20:49:10;;;;;;;23.05;14.55;;;1.20;99.90;;;;;;8304606;28;20030;-76